sensor_id;sensor_type;location;lat;lon;timestamp;P1;durP1;ratioP1;P2;durP2;ratioP2
62256;SDS011;48240;52.962;5.790;2023-09-18T03:49:21;5.07;;;4.45;;
62256;SDS011;48240;52.962;5.790;2023-09-18T03:51:47;5.28;;;4.20;;
62256;SDS011;48240;52.962;5.790;2023-09-18T03:54:14;4.63;;;4.22;;
62256;SDS011;48240;52.962;5.790;2023-09-18T03:56:40;4.45;;;4.05;;
62256;SDS011;48240;52.962;5.790;2023-09-18T03:59:06;5.45;;;4.53;;
62256;SDS011;48240;52.962;5.790;2023-09-18T04:01:32;4.60;;;4.10;;
62256;SDS011;48240;52.962;5.790;2023-09-18T04:03:58;5.00;;;4.50;;
62256;SDS011;48240;52.962;5.790;2023-09-18T04:06:35;5.22;;;4.10;;
62256;SDS011;48240;52.962;5.790;2023-09-18T04:09:01;4.28;;;3.88;;
62256;SDS011;48240;52.962;5.790;2023-09-18T04:11:27;4.93;;;4.43;;
62256;SDS011;48240;52.962;5.790;2023-09-18T04:13:57;4.70;;;4.13;;
62256;SDS011;48240;52.962;5.790;2023-09-18T04:16:24;5.35;;;4.60;;
62256;SDS011;48240;52.962;5.790;2023-09-18T04:18:51;4.95;;;4.45;;
62256;SDS011;48240;52.962;5.790;2023-09-18T04:21:17;4.95;;;4.35;;
62256;SDS011;48240;52.962;5.790;2023-09-18T04:23:43;5.03;;;4.53;;
62256;SDS011;48240;52.962;5.790;2023-09-18T04:26:09;4.68;;;4.07;;
62256;SDS011;48240;52.962;5.790;2023-09-18T04:28:38;5.90;;;4.30;;
62256;SDS011;48240;52.962;5.790;2023-09-18T04:31:04;5.13;;;4.28;;
62256;SDS011;48240;52.962;5.790;2023-09-18T04:33:30;4.40;;;4.00;;
62256;SDS011;48240;52.962;5.790;2023-09-18T04:35:56;4.85;;;4.13;;
62256;SDS011;48240;52.962;5.790;2023-09-18T04:38:22;4.57;;;4.18;;
62256;SDS011;48240;52.962;5.790;2023-09-18T04:40:48;4.70;;;4.20;;
62256;SDS011;48240;52.962;5.790;2023-09-18T04:43:14;4.80;;;4.30;;
62256;SDS011;48240;52.962;5.790;2023-09-18T04:45:40;6.10;;;4.20;;
62256;SDS011;48240;52.962;5.790;2023-09-18T04:48:07;5.20;;;4.70;;
62256;SDS011;48240;52.962;5.790;2023-09-18T04:50:33;5.15;;;4.65;;
62256;SDS011;48240;52.962;5.790;2023-09-18T04:53:00;6.38;;;4.75;;
62256;SDS011;48240;52.962;5.790;2023-09-18T04:55:26;6.03;;;5.10;;
62256;SDS011;48240;52.962;5.790;2023-09-18T04:57:52;6.35;;;5.15;;
62256;SDS011;48240;52.962;5.790;2023-09-18T05:00:18;7.80;;;5.10;;
62256;SDS011;48240;52.962;5.790;2023-09-18T05:02:48;5.47;;;4.70;;
62256;SDS011;48240;52.962;5.790;2023-09-18T05:05:14;6.53;;;5.10;;
62256;SDS011;48240;52.962;5.790;2023-09-18T05:07:40;6.50;;;5.30;;
62256;SDS011;48240;52.962;5.790;2023-09-18T05:10:07;6.70;;;5.18;;
62256;SDS011;48240;52.962;5.790;2023-09-18T05:12:33;8.68;;;5.63;;
62256;SDS011;48240;52.962;5.790;2023-09-18T05:14:59;6.15;;;5.13;;
62256;SDS011;48240;52.962;5.790;2023-09-18T05:17:39;6.70;;;4.90;;
62256;SDS011;48240;52.962;5.790;2023-09-18T05:22:32;6.15;;;5.25;;
62256;SDS011;48240;52.962;5.790;2023-09-18T05:24:58;6.60;;;5.38;;
62256;SDS011;48240;52.962;5.790;2023-09-18T05:27:24;8.23;;;5.40;;
62256;SDS011;48240;52.962;5.790;2023-09-18T05:29:50;7.60;;;5.72;;
62256;SDS011;48240;52.962;5.790;2023-09-18T05:32:16;6.70;;;6.00;;
62256;SDS011;48240;52.962;5.790;2023-09-18T05:34:42;6.65;;;5.90;;
62256;SDS011;48240;52.962;5.790;2023-09-18T05:37:08;6.13;;;5.28;;
62256;SDS011;48240;52.962;5.790;2023-09-18T05:39:35;9.18;;;6.05;;
62256;SDS011;48240;52.962;5.790;2023-09-18T05:42:01;7.80;;;5.80;;
62256;SDS011;48240;52.962;5.790;2023-09-18T05:44:27;6.68;;;5.80;;
62256;SDS011;48240;52.962;5.790;2023-09-18T05:46:53;8.30;;;5.97;;
62256;SDS011;48240;52.962;5.790;2023-09-18T05:49:19;9.98;;;6.28;;
62256;SDS011;48240;52.962;5.790;2023-09-18T05:51:45;9.02;;;6.00;;
62256;SDS011;48240;52.962;5.790;2023-09-18T05:54:13;7.65;;;5.85;;
62256;SDS011;48240;52.962;5.790;2023-09-18T05:56:40;7.75;;;6.20;;
62256;SDS011;48240;52.962;5.790;2023-09-18T05:59:06;13.65;;;6.68;;
62256;SDS011;48240;52.962;5.790;2023-09-18T06:01:32;8.13;;;5.80;;
62256;SDS011;48240;52.962;5.790;2023-09-18T06:03:58;6.57;;;5.63;;
62256;SDS011;48240;52.962;5.790;2023-09-18T06:06:24;10.13;;;5.90;;
62256;SDS011;48240;52.962;5.790;2023-09-18T06:08:51;9.88;;;5.45;;
62256;SDS011;48240;52.962;5.790;2023-09-18T06:11:20;9.80;;;6.30;;
62256;SDS011;48240;52.962;5.790;2023-09-18T06:13:46;6.88;;;5.47;;
62256;SDS011;48240;52.962;5.790;2023-09-18T06:16:12;6.32;;;5.63;;
62256;SDS011;48240;52.962;5.790;2023-09-18T06:18:38;9.85;;;5.63;;
62256;SDS011;48240;52.962;5.790;2023-09-18T06:21:04;9.45;;;5.93;;
62256;SDS011;48240;52.962;5.790;2023-09-18T06:23:30;8.27;;;5.88;;
62256;SDS011;48240;52.962;5.790;2023-09-18T06:25:57;9.10;;;6.07;;
62256;SDS011;48240;52.962;5.790;2023-09-18T06:28:24;8.05;;;5.65;;
62256;SDS011;48240;52.962;5.790;2023-09-18T06:30:50;8.63;;;5.47;;
62256;SDS011;48240;52.962;5.790;2023-09-18T06:33:17;9.48;;;6.40;;
62256;SDS011;48240;52.962;5.790;2023-09-18T06:35:44;6.63;;;5.40;;
62256;SDS011;48240;52.962;5.790;2023-09-18T06:38:10;9.40;;;5.50;;
62256;SDS011;48240;52.962;5.790;2023-09-18T06:40:38;7.78;;;5.10;;
62256;SDS011;48240;52.962;5.790;2023-09-18T06:43:04;7.50;;;4.60;;
62256;SDS011;48240;52.962;5.790;2023-09-18T06:45:30;7.78;;;5.10;;
62256;SDS011;48240;52.962;5.790;2023-09-18T06:47:58;11.23;;;4.18;;
62256;SDS011;48240;52.962;5.790;2023-09-18T06:50:25;8.73;;;4.18;;
62256;SDS011;48240;52.962;5.790;2023-09-18T06:52:51;6.72;;;4.43;;
62256;SDS011;48240;52.962;5.790;2023-09-18T06:55:17;6.72;;;4.07;;
62256;SDS011;48240;52.962;5.790;2023-09-18T06:57:43;8.68;;;3.95;;
62256;SDS011;48240;52.962;5.790;2023-09-18T07:00:10;9.32;;;3.50;;
62256;SDS011;48240;52.962;5.790;2023-09-18T07:02:36;6.75;;;3.97;;
62256;SDS011;48240;52.962;5.790;2023-09-18T07:05:02;9.60;;;3.53;;
62256;SDS011;48240;52.962;5.790;2023-09-18T07:07:28;6.32;;;3.15;;
62256;SDS011;48240;52.962;5.790;2023-09-18T07:09:54;9.82;;;3.17;;
62256;SDS011;48240;52.962;5.790;2023-09-18T07:12:20;7.47;;;3.13;;
62256;SDS011;48240;52.962;5.790;2023-09-18T07:14:47;7.07;;;3.10;;
62256;SDS011;48240;52.962;5.790;2023-09-18T07:17:13;11.93;;;3.50;;
62256;SDS011;48240;52.962;5.790;2023-09-18T07:19:40;5.22;;;2.92;;
62256;SDS011;48240;52.962;5.790;2023-09-18T07:22:06;5.60;;;2.40;;
62256;SDS011;48240;52.962;5.790;2023-09-18T07:24:33;6.22;;;2.85;;
62256;SDS011;48240;52.962;5.790;2023-09-18T07:26:59;5.90;;;2.60;;
62256;SDS011;48240;52.962;5.790;2023-09-18T07:29:25;5.45;;;2.67;;
62256;SDS011;48240;52.962;5.790;2023-09-18T07:31:51;4.88;;;2.50;;
62256;SDS011;48240;52.962;5.790;2023-09-18T07:34:17;5.80;;;2.60;;
62256;SDS011;48240;52.962;5.790;2023-09-18T07:36:43;4.00;;;2.30;;
62256;SDS011;48240;52.962;5.790;2023-09-18T07:39:10;3.67;;;2.10;;
62256;SDS011;48240;52.962;5.790;2023-09-18T07:41:39;4.63;;;2.50;;
62256;SDS011;48240;52.962;5.790;2023-09-18T07:44:05;4.90;;;2.28;;
62256;SDS011;48240;52.962;5.790;2023-09-18T07:46:31;3.80;;;2.67;;
62256;SDS011;48240;52.962;5.790;2023-09-18T07:48:57;3.50;;;2.20;;
62256;SDS011;48240;52.962;5.790;2023-09-18T07:51:23;4.50;;;2.38;;
62256;SDS011;48240;52.962;5.790;2023-09-18T07:53:49;4.55;;;2.20;;
62256;SDS011;48240;52.962;5.790;2023-09-18T07:56:16;6.30;;;2.20;;
62256;SDS011;48240;52.962;5.790;2023-09-18T07:58:43;4.88;;;2.20;;
62256;SDS011;48240;52.962;5.790;2023-09-18T08:01:11;4.55;;;2.35;;
62256;SDS011;48240;52.962;5.790;2023-09-18T08:03:39;5.28;;;2.03;;
62256;SDS011;48240;52.962;5.790;2023-09-18T08:06:06;3.80;;;1.80;;
62256;SDS011;48240;52.962;5.790;2023-09-18T08:08:32;2.42;;;1.80;;
62256;SDS011;48240;52.962;5.790;2023-09-18T08:11:00;4.07;;;1.67;;
62256;SDS011;48240;52.962;5.790;2023-09-18T08:13:27;5.82;;;2.20;;
62256;SDS011;48240;52.962;5.790;2023-09-18T08:15:53;3.53;;;2.10;;
62256;SDS011;48240;52.962;5.790;2023-09-18T08:18:19;4.28;;;2.30;;
62256;SDS011;48240;52.962;5.790;2023-09-18T08:20:45;3.95;;;1.88;;
62256;SDS011;48240;52.962;5.790;2023-09-18T08:23:11;3.53;;;2.30;;
62256;SDS011;48240;52.962;5.790;2023-09-18T08:25:37;3.65;;;2.13;;
62256;SDS011;48240;52.962;5.790;2023-09-18T08:28:05;7.05;;;2.42;;
62256;SDS011;48240;52.962;5.790;2023-09-18T08:30:32;4.85;;;2.20;;
62256;SDS011;48240;52.962;5.790;2023-09-18T08:32:58;3.40;;;2.00;;
62256;SDS011;48240;52.962;5.790;2023-09-18T08:35:24;4.95;;;2.53;;
62256;SDS011;48240;52.962;5.790;2023-09-18T08:37:54;3.72;;;2.20;;
62256;SDS011;48240;52.962;5.790;2023-09-18T08:40:22;4.28;;;2.15;;
62256;SDS011;48240;52.962;5.790;2023-09-18T08:42:48;4.32;;;1.90;;
62256;SDS011;48240;52.962;5.790;2023-09-18T08:45:21;3.92;;;2.30;;
62256;SDS011;48240;52.962;5.790;2023-09-18T08:47:48;5.85;;;2.45;;
62256;SDS011;48240;52.962;5.790;2023-09-18T08:50:15;4.30;;;2.15;;
62256;SDS011;48240;52.962;5.790;2023-09-18T08:52:41;4.25;;;2.20;;
62256;SDS011;48240;52.962;5.790;2023-09-18T08:55:07;5.05;;;2.20;;
62256;SDS011;48240;52.962;5.790;2023-09-18T08:57:34;3.53;;;2.40;;
62256;SDS011;48240;52.962;5.790;2023-09-18T09:00:00;4.80;;;2.50;;
62256;SDS011;48240;52.962;5.790;2023-09-18T09:02:32;5.13;;;2.20;;
62256;SDS011;48240;52.962;5.790;2023-09-18T09:04:58;5.40;;;2.60;;
62256;SDS011;48240;52.962;5.790;2023-09-18T09:07:25;4.75;;;2.50;;
62256;SDS011;48240;52.962;5.790;2023-09-18T09:09:51;4.38;;;2.20;;
62256;SDS011;48240;52.962;5.790;2023-09-18T09:12:45;3.65;;;2.80;;
62256;SDS011;48240;52.962;5.790;2023-09-18T09:15:04;4.22;;;2.25;;
62256;SDS011;48240;52.962;5.790;2023-09-18T09:17:30;4.78;;;2.33;;
62256;SDS011;48240;52.962;5.790;2023-09-18T09:20:07;5.18;;;2.47;;
62256;SDS011;48240;52.962;5.790;2023-09-18T09:22:35;5.82;;;2.63;;
62256;SDS011;48240;52.962;5.790;2023-09-18T09:25:02;3.85;;;2.40;;
62256;SDS011;48240;52.962;5.790;2023-09-18T09:27:28;3.75;;;2.58;;
62256;SDS011;48240;52.962;5.790;2023-09-18T09:29:58;7.18;;;2.78;;
62256;SDS011;48240;52.962;5.790;2023-09-18T09:32:24;7.38;;;2.75;;
62256;SDS011;48240;52.962;5.790;2023-09-18T09:34:50;5.82;;;3.08;;
62256;SDS011;48240;52.962;5.790;2023-09-18T09:37:31;5.28;;;2.85;;
62256;SDS011;48240;52.962;5.790;2023-09-18T09:39:57;6.93;;;2.83;;
62256;SDS011;48240;52.962;5.790;2023-09-18T09:42:38;6.35;;;3.20;;
62256;SDS011;48240;52.962;5.790;2023-09-18T09:45:04;4.82;;;3.10;;
62256;SDS011;48240;52.962;5.790;2023-09-18T09:47:32;6.10;;;2.90;;
62256;SDS011;48240;52.962;5.790;2023-09-18T09:49:58;6.40;;;3.58;;
62256;SDS011;48240;52.962;5.790;2023-09-18T09:52:33;4.47;;;3.40;;
62256;SDS011;48240;52.962;5.790;2023-09-18T09:54:59;5.22;;;3.10;;
62256;SDS011;48240;52.962;5.790;2023-09-18T09:57:25;6.55;;;4.00;;
62256;SDS011;48240;52.962;5.790;2023-09-18T09:59:51;5.18;;;3.50;;
62256;SDS011;48240;52.962;5.790;2023-09-18T10:02:19;4.82;;;3.92;;
62256;SDS011;48240;52.962;5.790;2023-09-18T10:04:47;7.30;;;4.22;;
62256;SDS011;48240;52.962;5.790;2023-09-18T10:07:15;6.50;;;3.83;;
62256;SDS011;48240;52.962;5.790;2023-09-18T10:09:43;5.47;;;3.90;;
62256;SDS011;48240;52.962;5.790;2023-09-18T10:12:10;6.07;;;3.80;;
62256;SDS011;48240;52.962;5.790;2023-09-18T10:14:37;5.22;;;4.00;;
62256;SDS011;48240;52.962;5.790;2023-09-18T10:17:08;6.00;;;3.75;;
62256;SDS011;48240;52.962;5.790;2023-09-18T10:19:40;5.15;;;4.10;;
62256;SDS011;48240;52.962;5.790;2023-09-18T10:22:21;5.28;;;3.58;;
62256;SDS011;48240;52.962;5.790;2023-09-18T10:24:54;4.95;;;3.67;;
62256;SDS011;48240;52.962;5.790;2023-09-18T10:27:25;5.45;;;3.42;;
62256;SDS011;48240;52.962;5.790;2023-09-18T10:29:53;6.13;;;3.40;;
62256;SDS011;48240;52.962;5.790;2023-09-18T10:32:19;6.40;;;4.00;;
62256;SDS011;48240;52.962;5.790;2023-09-18T10:34:46;4.30;;;3.60;;
62256;SDS011;48240;52.962;5.790;2023-09-18T10:37:12;6.95;;;4.05;;
62256;SDS011;48240;52.962;5.790;2023-09-18T10:39:40;3.45;;;3.15;;
62256;SDS011;48240;52.962;5.790;2023-09-18T10:42:09;4.40;;;3.10;;
62256;SDS011;48240;52.962;5.790;2023-09-18T10:44:36;4.13;;;3.22;;
62256;SDS011;48240;52.962;5.790;2023-09-18T10:47:05;4.28;;;3.45;;
62256;SDS011;48240;52.962;5.790;2023-09-18T10:49:33;4.95;;;3.30;;
62256;SDS011;48240;52.962;5.790;2023-09-18T10:52:00;6.70;;;3.80;;
62256;SDS011;48240;52.962;5.790;2023-09-18T10:54:27;4.45;;;2.80;;
62256;SDS011;48240;52.962;5.790;2023-09-18T10:56:54;7.22;;;3.90;;
62256;SDS011;48240;52.962;5.790;2023-09-18T10:59:21;7.85;;;3.92;;
62256;SDS011;48240;52.962;5.790;2023-09-18T11:01:48;5.97;;;3.70;;
62256;SDS011;48240;52.962;5.790;2023-09-18T11:04:17;5.20;;;3.10;;
62256;SDS011;48240;52.962;5.790;2023-09-18T11:09:22;7.93;;;3.40;;
62256;SDS011;48240;52.962;5.790;2023-09-18T11:11:52;6.50;;;3.33;;
62256;SDS011;48240;52.962;5.790;2023-09-18T11:14:22;8.57;;;3.78;;
62256;SDS011;48240;52.962;5.790;2023-09-18T11:16:49;6.78;;;3.22;;
62256;SDS011;48240;52.962;5.790;2023-09-18T11:19:18;6.65;;;2.95;;
62256;SDS011;48240;52.962;5.790;2023-09-18T11:21:45;9.30;;;3.47;;
62256;SDS011;48240;52.962;5.790;2023-09-18T11:24:18;4.32;;;3.20;;
62256;SDS011;48240;52.962;5.790;2023-09-18T11:26:46;5.18;;;3.20;;
62256;SDS011;48240;52.962;5.790;2023-09-18T11:29:14;5.70;;;3.00;;
62256;SDS011;48240;52.962;5.790;2023-09-18T11:31:43;7.05;;;3.15;;
62256;SDS011;48240;52.962;5.790;2023-09-18T11:34:28;6.45;;;3.00;;
62256;SDS011;48240;52.962;5.790;2023-09-18T11:37:01;6.43;;;3.10;;
62256;SDS011;48240;52.962;5.790;2023-09-18T11:39:39;6.45;;;3.33;;
62256;SDS011;48240;52.962;5.790;2023-09-18T11:42:13;4.47;;;3.28;;
62256;SDS011;48240;52.962;5.790;2023-09-18T11:44:42;8.13;;;2.83;;
62256;SDS011;48240;52.962;5.790;2023-09-18T11:47:12;6.50;;;3.58;;
62256;SDS011;48240;52.962;5.790;2023-09-18T11:49:48;7.22;;;3.03;;
62256;SDS011;48240;52.962;5.790;2023-09-18T11:52:18;7.53;;;3.60;;
62256;SDS011;48240;52.962;5.790;2023-09-18T11:54:44;5.53;;;3.00;;
62256;SDS011;48240;52.962;5.790;2023-09-18T11:57:12;6.05;;;3.40;;
62256;SDS011;48240;52.962;5.790;2023-09-18T11:59:39;7.70;;;3.10;;
62256;SDS011;48240;52.962;5.790;2023-09-18T12:02:09;6.85;;;3.38;;
62256;SDS011;48240;52.962;5.790;2023-09-18T12:04:36;6.63;;;3.35;;
62256;SDS011;48240;52.962;5.790;2023-09-18T12:07:04;6.45;;;3.15;;
62256;SDS011;48240;52.962;5.790;2023-09-18T12:09:31;4.50;;;3.40;;
62256;SDS011;48240;52.962;5.790;2023-09-18T12:12:00;5.68;;;3.10;;
62256;SDS011;48240;52.962;5.790;2023-09-18T12:14:30;5.25;;;3.30;;
62256;SDS011;48240;52.962;5.790;2023-09-18T12:16:57;5.65;;;3.22;;
62256;SDS011;48240;52.962;5.790;2023-09-18T12:19:23;4.25;;;3.22;;
62256;SDS011;48240;52.962;5.790;2023-09-18T12:21:50;11.00;;;3.20;;
62256;SDS011;48240;52.962;5.790;2023-09-18T12:24:24;5.78;;;2.90;;
62256;SDS011;48240;52.962;5.790;2023-09-18T12:26:51;5.00;;;3.10;;
62256;SDS011;48240;52.962;5.790;2023-09-18T12:29:17;5.15;;;3.00;;
62256;SDS011;48240;52.962;5.790;2023-09-18T12:31:43;3.55;;;3.08;;
62256;SDS011;48240;52.962;5.790;2023-09-18T12:34:22;4.35;;;3.20;;
62256;SDS011;48240;52.962;5.790;2023-09-18T12:36:48;4.50;;;2.80;;
62256;SDS011;48240;52.962;5.790;2023-09-18T12:39:15;4.68;;;2.97;;
62256;SDS011;48240;52.962;5.790;2023-09-18T12:41:45;7.70;;;3.90;;
62256;SDS011;48240;52.962;5.790;2023-09-18T12:44:11;10.43;;;3.95;;
62256;SDS011;48240;52.962;5.790;2023-09-18T12:46:39;6.75;;;3.72;;
62256;SDS011;48240;52.962;5.790;2023-09-18T12:49:15;7.57;;;3.03;;
62256;SDS011;48240;52.962;5.790;2023-09-18T12:51:41;7.30;;;3.40;;
62256;SDS011;48240;52.962;5.790;2023-09-18T12:54:09;4.63;;;3.08;;
62256;SDS011;48240;52.962;5.790;2023-09-18T12:56:42;4.00;;;3.08;;
62256;SDS011;48240;52.962;5.790;2023-09-18T12:59:09;4.35;;;3.10;;
62256;SDS011;48240;52.962;5.790;2023-09-18T13:01:35;4.68;;;3.03;;
62256;SDS011;48240;52.962;5.790;2023-09-18T13:04:03;4.10;;;3.13;;
62256;SDS011;48240;52.962;5.790;2023-09-18T13:06:31;4.60;;;2.97;;
62256;SDS011;48240;52.962;5.790;2023-09-18T13:09:14;3.35;;;3.05;;
62256;SDS011;48240;52.962;5.790;2023-09-18T13:11:53;5.22;;;3.00;;
62256;SDS011;48240;52.962;5.790;2023-09-18T13:14:20;3.85;;;3.45;;
62256;SDS011;48240;52.962;5.790;2023-09-18T13:16:46;6.18;;;2.97;;
62256;SDS011;48240;52.962;5.790;2023-09-18T13:19:12;4.07;;;3.05;;
62256;SDS011;48240;52.962;5.790;2023-09-18T13:21:38;5.82;;;3.20;;
62256;SDS011;48240;52.962;5.790;2023-09-18T13:24:23;6.15;;;2.90;;
62256;SDS011;48240;52.962;5.790;2023-09-18T13:26:50;7.63;;;3.38;;
62256;SDS011;48240;52.962;5.790;2023-09-18T13:29:16;4.45;;;3.10;;
62256;SDS011;48240;52.962;5.790;2023-09-18T13:31:42;4.38;;;3.08;;
62256;SDS011;48240;52.962;5.790;2023-09-18T13:34:08;4.30;;;3.05;;
62256;SDS011;48240;52.962;5.790;2023-09-18T13:36:34;5.50;;;2.80;;
62256;SDS011;48240;52.962;5.790;2023-09-18T13:39:00;8.57;;;3.00;;
62256;SDS011;48240;52.962;5.790;2023-09-18T13:41:26;7.45;;;3.28;;
62256;SDS011;48240;52.962;5.790;2023-09-18T13:43:52;7.10;;;3.20;;
62256;SDS011;48240;52.962;5.790;2023-09-18T13:46:20;5.45;;;3.00;;
62256;SDS011;48240;52.962;5.790;2023-09-18T13:48:47;7.53;;;3.10;;
62256;SDS011;48240;52.962;5.790;2023-09-18T13:51:13;5.07;;;2.95;;
62256;SDS011;48240;52.962;5.790;2023-09-18T13:53:39;5.45;;;3.15;;
62256;SDS011;48240;52.962;5.790;2023-09-18T13:56:06;3.58;;;2.78;;
62256;SDS011;48240;52.962;5.790;2023-09-18T13:58:32;5.82;;;3.30;;
62256;SDS011;48240;52.962;5.790;2023-09-18T14:01:00;4.05;;;2.75;;
62256;SDS011;48240;52.962;5.790;2023-09-18T14:03:26;3.13;;;2.72;;
62256;SDS011;48240;52.962;5.790;2023-09-18T14:05:53;3.78;;;2.50;;
62256;SDS011;48240;52.962;5.790;2023-09-18T14:08:19;5.25;;;2.85;;
62256;SDS011;48240;52.962;5.790;2023-09-18T14:10:45;5.97;;;2.80;;
62256;SDS011;48240;52.962;5.790;2023-09-18T14:13:11;5.45;;;2.90;;
62256;SDS011;48240;52.962;5.790;2023-09-18T14:15:37;5.18;;;3.35;;
62256;SDS011;48240;52.962;5.790;2023-09-18T14:18:04;4.43;;;2.80;;
62256;SDS011;48240;52.962;5.790;2023-09-18T14:20:30;4.10;;;3.10;;
62256;SDS011;48240;52.962;5.790;2023-09-18T14:22:56;5.85;;;2.80;;
62256;SDS011;48240;52.962;5.790;2023-09-18T14:25:22;5.53;;;2.80;;
62256;SDS011;48240;52.962;5.790;2023-09-18T14:27:48;5.47;;;3.25;;
62256;SDS011;48240;52.962;5.790;2023-09-18T14:30:15;5.18;;;3.00;;
62256;SDS011;48240;52.962;5.790;2023-09-18T14:32:41;5.15;;;3.10;;
62256;SDS011;48240;52.962;5.790;2023-09-18T14:35:07;5.97;;;2.83;;
62256;SDS011;48240;52.962;5.790;2023-09-18T14:37:34;3.90;;;2.90;;
62256;SDS011;48240;52.962;5.790;2023-09-18T14:40:01;6.13;;;3.20;;
62256;SDS011;48240;52.962;5.790;2023-09-18T14:42:27;5.50;;;3.50;;
62256;SDS011;48240;52.962;5.790;2023-09-18T14:44:53;6.70;;;3.60;;
62256;SDS011;48240;52.962;5.790;2023-09-18T14:47:19;6.88;;;2.88;;
62256;SDS011;48240;52.962;5.790;2023-09-18T14:49:46;5.32;;;2.90;;
62256;SDS011;48240;52.962;5.790;2023-09-18T14:52:12;7.07;;;3.17;;
62256;SDS011;48240;52.962;5.790;2023-09-18T14:54:39;5.72;;;3.42;;
62256;SDS011;48240;52.962;5.790;2023-09-18T14:57:06;8.32;;;3.42;;
62256;SDS011;48240;52.962;5.790;2023-09-18T14:59:32;4.03;;;2.97;;
62256;SDS011;48240;52.962;5.790;2023-09-18T15:01:58;6.90;;;3.45;;
62256;SDS011;48240;52.962;5.790;2023-09-18T15:04:24;4.43;;;3.13;;
62256;SDS011;48240;52.962;5.790;2023-09-18T15:06:50;6.82;;;3.15;;
62256;SDS011;48240;52.962;5.790;2023-09-18T15:09:16;11.00;;;2.90;;
62256;SDS011;48240;52.962;5.790;2023-09-18T15:11:42;6.82;;;3.05;;
62256;SDS011;48240;52.962;5.790;2023-09-18T15:14:09;3.15;;;2.80;;
62256;SDS011;48240;52.962;5.790;2023-09-18T15:16:35;4.80;;;2.70;;
62256;SDS011;48240;52.962;5.790;2023-09-18T15:19:01;7.25;;;3.20;;
62256;SDS011;48240;52.962;5.790;2023-09-18T15:21:29;5.93;;;3.10;;
62256;SDS011;48240;52.962;5.790;2023-09-18T15:23:55;8.05;;;3.00;;
62256;SDS011;48240;52.962;5.790;2023-09-18T15:26:22;8.10;;;3.28;;
62256;SDS011;48240;52.962;5.790;2023-09-18T15:28:48;4.57;;;2.92;;
62256;SDS011;48240;52.962;5.790;2023-09-18T15:31:14;6.82;;;3.65;;
62256;SDS011;48240;52.962;5.790;2023-09-18T15:33:41;5.25;;;3.08;;
62256;SDS011;48240;52.962;5.790;2023-09-18T15:36:07;4.90;;;3.40;;
62256;SDS011;48240;52.962;5.790;2023-09-18T15:38:33;6.13;;;3.72;;
62256;SDS011;48240;52.962;5.790;2023-09-18T15:40:59;3.85;;;3.40;;
62256;SDS011;48240;52.962;5.790;2023-09-18T15:43:25;6.22;;;3.70;;
62256;SDS011;48240;52.962;5.790;2023-09-18T15:45:54;6.25;;;4.25;;
62256;SDS011;48240;52.962;5.790;2023-09-18T15:48:22;7.70;;;3.90;;
62256;SDS011;48240;52.962;5.790;2023-09-18T15:50:49;7.20;;;3.42;;
62256;SDS011;48240;52.962;5.790;2023-09-18T15:53:15;9.88;;;3.90;;
62256;SDS011;48240;52.962;5.790;2023-09-18T15:55:42;6.70;;;3.35;;
62256;SDS011;48240;52.962;5.790;2023-09-18T15:58:08;6.72;;;3.28;;
62256;SDS011;48240;52.962;5.790;2023-09-18T16:00:35;5.88;;;3.72;;
62256;SDS011;48240;52.962;5.790;2023-09-18T16:03:02;4.78;;;3.25;;
62256;SDS011;48240;52.962;5.790;2023-09-18T16:05:28;5.35;;;3.20;;
62256;SDS011;48240;52.962;5.790;2023-09-18T16:07:54;8.95;;;3.30;;
62256;SDS011;48240;52.962;5.790;2023-09-18T16:10:24;4.88;;;2.92;;
62256;SDS011;48240;52.962;5.790;2023-09-18T16:12:50;5.30;;;2.50;;
62256;SDS011;48240;52.962;5.790;2023-09-18T16:15:16;4.40;;;2.70;;
62256;SDS011;48240;52.962;5.790;2023-09-18T16:17:43;8.07;;;3.05;;
62256;SDS011;48240;52.962;5.790;2023-09-18T16:20:10;5.38;;;2.78;;
62256;SDS011;48240;52.962;5.790;2023-09-18T16:22:36;5.97;;;2.80;;
62256;SDS011;48240;52.962;5.790;2023-09-18T16:25:04;2.78;;;2.45;;
62256;SDS011;48240;52.962;5.790;2023-09-18T16:27:30;6.13;;;2.83;;
62256;SDS011;48240;52.962;5.790;2023-09-18T16:29:56;4.95;;;2.70;;
62256;SDS011;48240;52.962;5.790;2023-09-18T16:32:22;6.60;;;2.97;;
62256;SDS011;48240;52.962;5.790;2023-09-18T16:34:48;7.07;;;2.78;;
62256;SDS011;48240;52.962;5.790;2023-09-18T16:37:14;8.25;;;2.85;;
62256;SDS011;48240;52.962;5.790;2023-09-18T16:39:40;5.75;;;2.80;;
62256;SDS011;48240;52.962;5.790;2023-09-18T16:42:09;13.23;;;2.80;;
62256;SDS011;48240;52.962;5.790;2023-09-18T16:44:35;3.58;;;2.50;;
62256;SDS011;48240;52.962;5.790;2023-09-18T16:47:04;4.68;;;2.80;;
62256;SDS011;48240;52.962;5.790;2023-09-18T16:49:30;4.63;;;2.47;;
62256;SDS011;48240;52.962;5.790;2023-09-18T16:51:56;6.03;;;2.70;;
62256;SDS011;48240;52.962;5.790;2023-09-18T16:54:22;4.38;;;2.42;;
62256;SDS011;48240;52.962;5.790;2023-09-18T16:56:48;3.78;;;2.30;;
62256;SDS011;48240;52.962;5.790;2023-09-18T16:59:16;5.90;;;2.10;;
62256;SDS011;48240;52.962;5.790;2023-09-18T17:01:42;4.15;;;2.22;;
62256;SDS011;48240;52.962;5.790;2023-09-18T17:04:08;3.17;;;2.05;;
62256;SDS011;48240;52.962;5.790;2023-09-18T17:06:37;3.85;;;1.88;;
62256;SDS011;48240;52.962;5.790;2023-09-18T17:09:03;5.68;;;2.60;;
62256;SDS011;48240;52.962;5.790;2023-09-18T17:11:33;4.18;;;1.83;;
62256;SDS011;48240;52.962;5.790;2023-09-18T17:13:59;3.85;;;2.00;;
62256;SDS011;48240;52.962;5.790;2023-09-18T17:16:26;4.30;;;2.03;;
62256;SDS011;48240;52.962;5.790;2023-09-18T17:18:52;2.63;;;2.17;;
62256;SDS011;48240;52.962;5.790;2023-09-18T17:21:24;4.22;;;2.13;;
62256;SDS011;48240;52.962;5.790;2023-09-18T17:23:50;2.92;;;2.03;;
62256;SDS011;48240;52.962;5.790;2023-09-18T17:26:16;5.65;;;2.47;;
62256;SDS011;48240;52.962;5.790;2023-09-18T17:28:42;2.97;;;1.98;;
62256;SDS011;48240;52.962;5.790;2023-09-18T17:31:09;6.88;;;2.38;;
62256;SDS011;48240;52.962;5.790;2023-09-18T17:33:36;4.40;;;2.38;;
62256;SDS011;48240;52.962;5.790;2023-09-18T17:36:03;2.92;;;1.88;;
62256;SDS011;48240;52.962;5.790;2023-09-18T17:38:29;8.35;;;1.90;;
62256;SDS011;48240;52.962;5.790;2023-09-18T17:40:55;2.78;;;1.52;;
62256;SDS011;48240;52.962;5.790;2023-09-18T17:43:21;4.22;;;1.90;;
62256;SDS011;48240;52.962;5.790;2023-09-18T17:45:47;2.97;;;1.77;;
62256;SDS011;48240;52.962;5.790;2023-09-18T17:48:13;4.63;;;1.80;;
62256;SDS011;48240;52.962;5.790;2023-09-18T17:50:40;3.55;;;1.80;;
62256;SDS011;48240;52.962;5.790;2023-09-18T17:53:06;6.38;;;2.20;;
62256;SDS011;48240;52.962;5.790;2023-09-18T17:55:32;9.00;;;2.25;;
62256;SDS011;48240;52.962;5.790;2023-09-18T17:57:58;5.93;;;1.75;;
62256;SDS011;48240;52.962;5.790;2023-09-18T18:00:24;3.35;;;2.03;;
62256;SDS011;48240;52.962;5.790;2023-09-18T18:02:50;2.80;;;1.80;;
62256;SDS011;48240;52.962;5.790;2023-09-18T18:05:16;8.38;;;2.10;;
62256;SDS011;48240;52.962;5.790;2023-09-18T18:07:42;13.68;;;2.00;;
62256;SDS011;48240;52.962;5.790;2023-09-18T18:10:09;4.72;;;1.88;;
62256;SDS011;48240;52.962;5.790;2023-09-18T18:12:38;3.58;;;2.03;;
62256;SDS011;48240;52.962;5.790;2023-09-18T18:15:05;5.55;;;1.70;;
62256;SDS011;48240;52.962;5.790;2023-09-18T18:17:33;8.30;;;1.70;;
62256;SDS011;48240;52.962;5.790;2023-09-18T18:20:00;3.30;;;1.60;;
62256;SDS011;48240;52.962;5.790;2023-09-18T18:22:30;4.75;;;1.80;;
62256;SDS011;48240;52.962;5.790;2023-09-18T18:24:57;4.75;;;1.90;;
62256;SDS011;48240;52.962;5.790;2023-09-18T18:27:23;3.42;;;1.60;;
62256;SDS011;48240;52.962;5.790;2023-09-18T18:29:49;14.88;;;1.92;;
62256;SDS011;48240;52.962;5.790;2023-09-18T18:32:15;3.92;;;1.50;;
62256;SDS011;48240;52.962;5.790;2023-09-18T18:34:41;4.70;;;1.80;;
62256;SDS011;48240;52.962;5.790;2023-09-18T18:37:10;3.75;;;1.85;;
62256;SDS011;48240;52.962;5.790;2023-09-18T18:39:36;5.40;;;1.88;;
62256;SDS011;48240;52.962;5.790;2023-09-18T18:42:04;3.25;;;1.50;;